Time;durP1;ratioP1;P1;durP2;ratioP2;P2;SDS_P1;SDS_P2;PMS_P1;PMS_P2;Temp;Humidity;BMP_temperature;BMP_pressure;BME280_temperature;BME280_humidity;BME280_pressure;Samples;Min_cycle;Max_cycle;Signal;HPM_P1;HPM_P2
2022/03/22 00:00:28;;;;;;;0.40;0.40;;;9.70;99.90;10.00;102781.00;;;;5047335;28;20191;-66
2022/03/22 00:02:59;;;;;;;0.40;0.40;;;9.80;99.90;9.40;102778.00;;;;5014174;28;20195;-67
2022/03/22 00:05:32;;;;;;;0.87;0.87;;;9.70;99.90;9.40;102776.00;;;;5031098;28;20278;-67
2022/03/22 00:08:03;;;;;;;0.30;0.30;;;9.60;99.90;9.30;102777.00;;;;5047725;28;20179;-67
2022/03/22 00:10:38;;;;;;;2.60;2.50;;;9.50;99.90;9.50;102773.00;;;;5013824;28;20185;-68
2022/03/22 00:13:08;;;;;;;1.07;0.97;;;9.50;99.90;9.10;102781.00;;;;5047366;28;20220;-67
2022/03/22 00:15:38;;;;;;;0.30;0.30;;;9.40;99.90;9.60;102774.00;;;;5045812;28;20199;-67
2022/03/22 00:18:10;;;;;;;0.60;0.60;;;9.50;99.90;9.20;102770.00;;;;5029997;28;20232;-66
2022/03/22 00:20:42;;;;;;;0.60;0.60;;;9.40;99.90;9.10;102780.00;;;;5014952;28;20179;-68
2022/03/22 00:23:13;;;;;;;0.30;0.30;;;9.40;99.90;9.20;102781.00;;;;5030148;28;20336;-66
2022/03/22 00:25:42;;;;;;;2.53;1.73;;;9.30;99.90;9.20;102731.00;;;;5015269;28;20187;-67
2022/03/22 00:28:10;;;;;;;0.30;0.30;;;9.30;99.90;9.40;102775.00;;;;5045533;28;20260;-66
2022/03/22 00:30:36;;;;;;;0.50;0.50;;;9.40;99.90;9.40;102781.00;;;;5046123;28;20259;-67
2022/03/22 00:33:09;;;;;;;0.40;0.40;;;9.50;99.90;9.00;102781.00;;;;5047180;28;20216;-67
2022/03/22 00:35:39;;;;;;;0.90;0.90;;;9.50;99.90;9.10;102785.00;;;;5014039;28;20204;-66
2022/03/22 00:38:11;;;;;;;0.97;0.93;;;9.50;99.90;9.40;102785.00;;;;5046643;28;20187;-67
2022/03/22 00:40:38;;;;;;;1.03;0.43;;;9.50;99.90;9.50;102776.00;;;;5046655;28;20239;-67
2022/03/22 00:43:08;;;;;;;0.70;0.70;;;9.60;99.90;9.30;102773.00;;;;5045841;28;20643;-67
2022/03/22 00:45:34;;;;;;;0.37;0.37;;;9.60;99.90;9.10;102787.00;;;;5046948;28;20282;-67
2022/03/22 00:48:13;;;;;;;0.40;0.40;;;9.50;99.90;9.00;102780.00;;;;5047244;28;20277;-67
2022/03/22 00:50:44;;;;;;;0.53;0.53;;;9.50;99.90;8.90;102784.00;;;;5045077;28;20182;-67
2022/03/22 00:53:13;;;;;;;0.30;0.30;;;9.40;99.90;9.00;102797.00;;;;5046727;28;20229;-67
2022/03/22 00:55:45;;;;;;;0.60;0.60;;;9.50;99.90;9.40;102777.00;;;;5046070;28;20645;-66
2022/03/22 00:58:14;;;;;;;0.30;0.30;;;9.50;99.90;9.70;102783.00;;;;5045501;28;20634;-66
2022/03/22 01:00:47;;;;;;;0.30;0.30;;;9.70;99.90;9.70;102785.00;;;;5046487;28;20235;-66
2022/03/22 01:03:18;;;;;;;0.30;0.30;;;9.70;99.90;9.60;102787.00;;;;5014667;28;20188;-67
2022/03/22 01:05:44;;;;;;;0.30;0.30;;;9.70;99.90;9.70;102786.00;;;;5030061;28;20192;-67
2022/03/22 01:08:13;;;;;;;0.20;0.20;;;9.80;99.90;9.60;102776.00;;;;5030449;28;20187;-68
2022/03/22 01:10:42;;;;;;;0.30;0.30;;;9.80;99.90;9.50;102786.00;;;;5045268;28;20275;-67
2022/03/22 01:13:16;;;;;;;0.40;0.40;;;9.70;99.90;9.60;102768.00;;;;5013556;28;20208;-66
2022/03/22 01:15:45;;;;;;;0.87;0.87;;;9.70;99.90;9.60;102774.00;;;;5046475;28;20267;-67
2022/03/22 01:18:12;;;;;;;0.97;0.97;;;9.70;99.90;9.50;102767.00;;;;5027956;28;20228;-66
2022/03/22 01:20:47;;;;;;;0.30;0.30;;;9.70;99.90;9.50;102786.00;;;;5012795;28;20230;-66
2022/03/22 01:23:14;;;;;;;3.80;3.50;;;9.70;99.90;9.20;102771.00;;;;5045029;28;20755;-66
2022/03/22 01:25:43;;;;;;;0.30;0.30;;;9.60;99.90;9.60;102784.00;;;;5013776;28;20192;-66
2022/03/22 01:28:15;;;;;;;0.73;0.73;;;9.60;99.90;9.60;102795.00;;;;5044892;28;20288;-66
2022/03/22 01:30:42;;;;;;;0.37;0.37;;;9.70;99.90;9.40;102783.00;;;;5045354;28;20254;-66
2022/03/22 01:33:09;;;;;;;0.30;0.30;;;9.60;99.90;9.40;102783.00;;;;5027856;28;20261;-66
2022/03/22 01:35:38;;;;;;;0.30;0.30;;;9.70;99.90;9.40;102772.00;;;;5046124;28;20196;-66
2022/03/22 01:38:07;;;;;;;0.30;0.30;;;9.60;99.90;9.50;102774.00;;;;5045079;28;20200;-68
2022/03/22 01:40:37;;;;;;;0.30;0.30;;;9.70;99.90;9.60;102789.00;;;;5043628;28;20567;-66
2022/03/22 01:43:04;;;;;;;0.30;0.30;;;9.70;99.90;9.40;102772.00;;;;5012280;28;20186;-67
2022/03/22 01:45:34;;;;;;;0.37;0.37;;;9.60;99.90;9.50;102780.00;;;;5045512;28;20176;-67
2022/03/22 01:48:03;;;;;;;0.30;0.30;;;9.60;99.90;9.70;102777.00;;;;5043929;28;20185;-66
2022/03/22 01:50:30;;;;;;;0.57;0.57;;;9.70;99.90;9.50;102783.00;;;;5013677;28;20181;-67
2022/03/22 01:52:59;;;;;;;0.30;0.30;;;9.70;99.90;9.40;102774.00;;;;5045187;28;20243;-67
2022/03/22 01:55:31;;;;;;;0.30;0.30;;;9.60;99.90;9.40;102765.00;;;;5011856;28;20191;-66
2022/03/22 01:58:03;;;;;;;0.30;0.30;;;9.60;99.90;10.00;102777.00;;;;5045753;28;20197;-66
2022/03/22 02:00:31;;;;;;;0.30;0.30;;;9.80;99.90;9.70;102778.00;;;;5044921;28;20184;-67
2022/03/22 02:05:56;;;;;;;0.30;0.30;;;10.00;99.90;9.90;102769.00;;;;5040222;28;20273;-64
2022/03/22 02:08:32;;;;;;;0.23;0.23;;;10.00;99.90;9.70;102728.00;;;;5044202;28;20572;-64
2022/03/22 02:11:07;;;;;;;0.70;0.70;;;9.90;99.90;9.60;102766.00;;;;5027918;28;20196;-65
2022/03/22 02:13:42;;;;;;;1.17;1.17;;;9.80;99.90;9.40;102761.00;;;;5013515;28;20253;-65
2022/03/22 02:16:16;;;;;;;3.27;3.17;;;9.70;99.90;9.40;102761.00;;;;5045378;28;20171;-65
2022/03/22 02:18:51;;;;;;;0.27;0.27;;;9.70;99.90;9.60;102748.00;;;;5044666;28;20757;-66
2022/03/22 02:21:27;;;;;;;0.93;0.93;;;9.70;99.90;9.50;102760.00;;;;5044696;28;20563;-65
2022/03/22 02:23:58;;;;;;;2.37;1.03;;;9.70;99.90;9.50;102703.00;;;;5044213;28;20181;-66
2022/03/22 02:26:30;;;;;;;0.30;0.30;;;9.60;99.90;9.50;102752.00;;;;5022987;28;20196;-65
2022/03/22 02:28:56;;;;;;;0.50;0.50;;;9.60;99.90;9.40;102741.00;;;;5026561;28;20232;-66
2022/03/22 02:31:32;;;;;;;0.30;0.30;;;9.60;99.90;9.10;102770.00;;;;5028639;28;20230;-65
2022/03/22 02:34:04;;;;;;;1.43;1.33;;;9.50;99.90;9.20;102758.00;;;;5044549;28;20179;-65
2022/03/22 02:36:37;;;;;;;0.60;0.60;;;9.50;99.90;9.20;102769.00;;;;5045466;28;20246;-65
2022/03/22 02:39:08;;;;;;;0.30;0.30;;;9.40;99.90;9.30;102756.00;;;;5012542;28;20260;-65
2022/03/22 02:41:39;;;;;;;0.30;0.30;;;9.50;99.90;9.40;102749.00;;;;5013270;28;20187;-65
2022/03/22 02:44:11;;;;;;;0.20;0.20;;;9.50;99.90;9.30;102762.00;;;;5044123;28;20226;-65
2022/03/22 02:46:42;;;;;;;0.30;0.30;;;9.50;99.90;9.40;102768.00;;;;5028300;28;20179;-65
2022/03/22 02:49:13;;;;;;;0.40;0.40;;;9.50;99.90;9.60;102721.00;;;;5043272;28;20176;-65
2022/03/22 02:51:44;;;;;;;0.50;0.50;;;9.60;99.90;9.40;102758.00;;;;5045056;28;20762;-65
2022/03/22 02:54:16;;;;;;;5.13;4.93;;;9.50;99.90;9.50;102768.00;;;;5010696;28;20206;-66
2022/03/22 02:56:47;;;;;;;0.30;0.30;;;9.50;99.90;9.30;102762.00;;;;5012893;28;20180;-66
2022/03/22 02:59:18;;;;;;;7.20;6.27;;;9.50;99.90;9.40;102761.00;;;;5041491;28;20187;-66
2022/03/22 03:01:57;;;;;;;3.27;3.07;;;9.50;99.90;9.00;102768.00;;;;5010850;28;20198;-66
2022/03/22 03:04:26;;;;;;;0.30;0.30;;;9.30;99.90;9.10;102762.00;;;;5042234;28;20180;-66
2022/03/22 03:06:57;;;;;;;1.80;1.03;;;9.40;99.90;8.90;102778.00;;;;5043103;28;20187;-65
2022/03/22 03:09:28;;;;;;;2.20;1.33;;;9.30;99.90;9.10;102777.00;;;;5042947;28;20207;-65
2022/03/22 03:12:02;;;;;;;1.53;1.47;;;9.30;99.90;9.30;102763.00;;;;5011098;28;20310;-66
2022/03/22 03:14:39;;;;;;;0.30;0.30;;;9.40;99.90;9.40;102717.00;;;;5042040;28;20647;-65
2022/03/22 03:17:12;;;;;;;0.37;0.37;;;9.50;99.90;9.20;102758.00;;;;5012898;28;20245;-65
2022/03/22 03:19:43;;;;;;;0.50;0.50;;;9.60;99.90;9.10;102767.00;;;;5047291;28;20191;-65
2022/03/22 03:22:15;;;;;;;0.97;0.97;;;9.50;99.90;9.30;102733.00;;;;5030866;28;20279;-65
2022/03/22 03:24:49;;;;;;;1.07;1.07;;;9.40;99.90;9.30;102775.00;;;;5048561;28;20687;-65
2022/03/22 03:27:17;;;;;;;0.43;0.43;;;9.50;99.90;9.30;102771.00;;;;5048474;28;20221;-66
2022/03/22 03:29:52;;;;;;;1.17;1.17;;;9.50;99.90;9.00;102776.00;;;;5047578;28;20172;-65
2022/03/22 03:32:23;;;;;;;0.50;0.50;;;9.50;99.90;9.10;102770.00;;;;5046370;28;20211;-65
2022/03/22 03:34:54;;;;;;;2.37;2.23;;;9.40;99.90;9.40;102777.00;;;;5031565;28;20191;-67
2022/03/22 03:37:31;;;;;;;0.30;0.30;;;9.50;99.90;9.20;102771.00;;;;5047958;28;20179;-66
2022/03/22 03:40:04;;;;;;;0.30;0.30;;;9.50;99.90;9.40;102787.00;;;;5047177;28;20266;-65
2022/03/22 03:42:42;;;;;;;0.30;0.30;;;9.50;99.90;9.30;102777.00;;;;5016175;28;20211;-65
2022/03/22 03:48:04;;;;;;;1.43;1.43;;;9.50;99.90;8.90;102780.00;;;;5041949;28;20193;-65
2022/03/22 03:51:20;;;;;;;0.30;0.30;;;9.30;99.90;8.90;102788.00;;;;5031382;28;20687;-65
2022/03/22 03:53:51;;;;;;;2.10;2.00;;;9.20;99.90;9.10;102781.00;;;;5031403;28;20195;-65
2022/03/22 03:56:23;;;;;;;0.30;0.30;;;9.20;99.90;9.10;102775.00;;;;5015290;28;20215;-64
2022/03/22 03:58:57;;;;;;;0.50;0.50;;;9.30;99.90;9.10;102782.00;;;;5015728;28;20266;-64
2022/03/22 04:01:28;;;;;;;0.73;0.73;;;9.20;99.90;9.00;102787.00;;;;5047243;28;20187;-64
2022/03/22 04:04:03;;;;;;;0.50;0.50;;;9.30;99.90;8.90;102776.00;;;;5047929;28;20179;-65
2022/03/22 04:06:37;;;;;;;0.47;0.47;;;9.20;99.90;8.90;102784.00;;;;5046733;28;20188;-65
2022/03/22 04:09:09;;;;;;;0.30;0.30;;;9.10;99.90;9.00;102771.00;;;;5046558;28;20177;-64
2022/03/22 04:11:41;;;;;;;1.03;1.03;;;9.10;99.90;8.90;102785.00;;;;5047750;28;20207;-65
2022/03/22 04:14:13;;;;;;;0.70;0.70;;;9.10;99.90;8.90;102790.00;;;;5047809;28;20216;-65
2022/03/22 04:16:44;;;;;;;1.23;1.23;;;9.20;99.90;9.00;102798.00;;;;5046241;28;20643;-65
2022/03/22 04:19:12;;;;;;;0.40;0.40;;;9.10;99.90;9.00;102794.00;;;;5015327;28;20203;-65
2022/03/22 04:21:46;;;;;;;0.63;0.63;;;9.20;99.90;9.10;102793.00;;;;5015594;28;20716;-65
2022/03/22 04:24:21;;;;;;;0.30;0.30;;;9.20;99.90;8.50;102798.00;;;;5013991;28;20181;-65
2022/03/22 04:26:52;;;;;;;0.30;0.30;;;9.20;99.90;8.60;102793.00;;;;5014440;28;20214;-65
2022/03/22 04:35:00;;;;;;;1.23;1.23;;;8.90;99.90;8.80;102801.00;;;;5041412;28;20219;-66
2022/03/22 04:37:36;;;;;;;0.57;0.57;;;9.00;99.90;9.00;102796.00;;;;5046588;28;20187;-65
2022/03/22 04:40:08;;;;;;;0.57;0.57;;;9.10;99.90;9.00;102795.00;;;;5015543;28;20183;-65
2022/03/22 04:42:42;;;;;;;3.93;1.40;;;9.20;99.90;9.00;102791.00;;;;5014961;28;20249;-65
2022/03/22 04:45:11;;;;;;;0.37;0.37;;;9.20;99.90;8.90;102791.00;;;;4997757;28;20283;-65
2022/03/22 04:47:45;;;;;;;0.30;0.30;;;9.20;99.90;8.90;102791.00;;;;5047166;28;20183;-66
2022/03/22 04:50:17;;;;;;;0.30;0.30;;;9.20;99.90;9.10;102796.00;;;;5014751;28;20168;-66
2022/03/22 04:58:28;;;;;;;0.40;0.40;;;9.10;99.90;8.80;102798.00;;;;5042082;28;20261;-66
2022/03/22 05:01:00;;;;;;;2.70;1.60;;;9.00;99.90;8.80;102745.00;;;;5046105;28;20191;-66
2022/03/22 05:03:31;;;;;;;0.50;0.50;;;9.00;99.90;8.90;102792.00;;;;5046380;28;20201;-66
2022/03/22 05:09:07;;;;;;;0.60;0.60;;;9.00;99.90;8.80;102795.00;;;;5005815;28;20222;-66
2022/03/22 05:11:41;;;;;;;0.30;0.30;;;9.00;99.90;8.50;102772.00;;;;5029752;28;20200;-66
2022/03/22 05:14:15;;;;;;;0.20;0.20;;;8.90;99.90;8.40;102805.00;;;;5029286;28;20643;-66
2022/03/22 05:16:46;;;;;;;0.30;0.30;;;8.80;99.90;8.30;102753.00;;;;5029459;28;20679;-66
2022/03/22 05:19:19;;;;;;;1.33;1.03;;;8.70;99.90;8.40;102815.00;;;;5046368;28;20184;-66
2022/03/22 05:21:50;;;;;;;1.53;1.53;;;8.70;99.90;8.50;102795.00;;;;5012999;28;20203;-65
2022/03/22 05:24:22;;;;;;;1.07;1.07;;;8.70;99.90;8.40;102765.00;;;;5045901;28;20223;-66
2022/03/22 05:26:55;;;;;;;0.40;0.40;;;8.70;99.90;8.30;102819.00;;;;5046060;28;20246;-66
2022/03/22 05:29:39;;;;;;;0.30;0.30;;;8.60;99.90;8.40;102817.00;;;;5028405;28;20275;-67
2022/03/22 05:32:10;;;;;;;2.03;1.63;;;8.70;99.90;8.40;102818.00;;;;4996553;28;20217;-66
2022/03/22 05:34:43;;;;;;;0.30;0.30;;;8.60;99.90;8.60;102763.00;;;;5046413;28;20178;-66
2022/03/22 05:47:14;;;;;;;2.00;1.90;;;8.70;99.90;8.40;102822.00;;;;5000542;28;20258;-66
2022/03/22 05:50:09;;;;;;;1.47;1.37;;;8.70;99.90;7.90;102803.00;;;;5026560;28;20572;-66
2022/03/22 05:53:06;;;;;;;0.43;0.43;;;8.60;99.90;7.90;102812.00;;;;5025824;28;20569;-66
2022/03/22 05:55:49;;;;;;;7.93;1.57;;;8.50;99.90;8.00;102804.00;;;;5026373;28;20255;-66
2022/03/22 05:58:17;;;;;;;0.40;0.40;;;8.50;99.90;8.20;102811.00;;;;4991866;28;20208;-67
2022/03/22 06:01:01;;;;;;;0.40;0.40;;;8.50;99.90;8.00;102825.00;;;;4991545;28;20196;-66
2022/03/22 06:04:13;;;;;;;2.40;2.30;;;8.50;99.90;8.10;102807.00;;;;4994166;28;20610;-67
2022/03/22 06:07:02;;;;;;;0.63;0.63;;;8.50;99.90;8.30;102768.00;;;;5008890;28;20184;-66
2022/03/22 06:09:33;;;;;;;4.00;1.43;;;8.60;99.90;8.30;102826.00;;;;4993463;28;20180;-66
2022/03/22 06:11:59;;;;;;;0.30;0.30;;;8.60;99.90;8.60;102821.00;;;;4993943;28;20200;-66
2022/03/22 06:14:31;;;;;;;0.73;0.73;;;8.80;99.90;8.60;102824.00;;;;5025965;28;20559;-66
2022/03/22 06:17:05;;;;;;;0.60;0.60;;;8.90;99.90;8.60;102813.00;;;;5024169;28;20168;-67
2022/03/22 06:19:39;;;;;;;0.30;0.30;;;8.90;99.90;8.80;102808.00;;;;5025566;28;20183;-67
2022/03/22 06:22:08;;;;;;;0.30;0.30;;;9.00;99.90;8.80;102817.00;;;;5025083;28;20373;-67
2022/03/22 06:24:39;;;;;;;1.47;1.40;;;9.10;99.90;9.10;102820.00;;;;5025586;28;20275;-67
2022/03/22 06:27:10;;;;;;;1.13;1.03;;;9.20;99.90;9.50;102815.00;;;;4992677;28;20587;-65
2022/03/22 06:29:47;;;;;;;0.40;0.40;;;9.30;99.90;9.80;102830.00;;;;4993039;28;20182;-66
2022/03/22 06:32:18;;;;;;;0.30;0.30;;;9.70;99.90;9.90;102824.00;;;;5041001;28;20215;-65
2022/03/22 06:34:51;;;;;;;0.77;0.77;;;9.80;99.90;10.30;102817.00;;;;4992899;28;20192;-64
2022/03/22 06:37:22;;;;;;;0.40;0.40;;;10.10;99.90;10.00;102797.00;;;;5024607;28;20703;-65
2022/03/22 06:39:50;;;;;;;0.60;0.60;;;10.10;99.90;10.00;102843.00;;;;5009159;28;20198;-65
2022/03/22 06:42:22;;;;;;;0.30;0.30;;;10.20;99.90;10.10;102833.00;;;;5024958;28;20289;-65
2022/03/22 06:44:53;;;;;;;0.40;0.40;;;10.30;99.90;10.40;102842.00;;;;5008211;28;20206;-65
2022/03/22 06:47:27;;;;;;;0.50;0.50;;;10.50;99.90;10.60;102854.00;;;;4993055;28;20191;-65
2022/03/22 06:50:02;;;;;;;0.67;0.67;;;10.70;99.90;11.10;102828.00;;;;4992327;28;20187;-66
2022/03/22 06:52:33;;;;;;;0.30;0.30;;;11.00;99.90;11.60;102875.00;;;;5024693;28;20624;-66
2022/03/22 06:55:09;;;;;;;1.77;1.67;;;11.20;99.90;10.80;102873.00;;;;5028181;28;20176;-66
2022/03/22 06:57:39;;;;;;;0.83;0.83;;;11.20;99.90;11.50;102879.00;;;;5011739;28;20271;-65
2022/03/22 07:00:15;;;;;;;1.13;1.03;;;11.40;99.90;12.00;102838.00;;;;5029129;28;20703;-65
2022/03/22 07:02:48;;;;;;;0.60;0.60;;;11.70;99.90;12.00;102901.00;;;;5027308;28;20635;-66
2022/03/22 07:05:22;;;;;;;0.30;0.30;;;11.90;99.90;12.80;102907.00;;;;4996292;28;20225;-66
2022/03/22 07:07:53;;;;;;;0.40;0.40;;;12.30;99.90;12.70;102918.00;;;;5028394;28;20170;-66
2022/03/22 07:10:19;;;;;;;0.20;0.20;;;12.50;99.90;13.10;102925.00;;;;5028621;28;20172;-65
2022/03/22 07:13:10;;;;;;;3.53;1.33;;;12.70;99.90;13.10;102949.00;;;;5011197;28;20298;-65
2022/03/22 07:15:40;;;;;;;0.83;0.83;;;12.90;99.90;13.30;102943.00;;;;5027897;28;20176;-65
2022/03/22 07:18:13;;;;;;;0.37;0.37;;;12.90;99.90;13.80;102944.00;;;;5028063;28;20641;-65
2022/03/22 07:20:39;;;;;;;1.27;1.17;;;13.20;99.90;13.00;102947.00;;;;5028148;28;20187;-65
2022/03/22 07:23:07;;;;;;;1.13;0.70;;;13.00;99.90;13.30;102943.00;;;;5028467;28;20207;-65
2022/03/22 07:25:36;;;;;;;0.60;0.60;;;13.00;99.90;13.70;102952.00;;;;5028077;28;20190;-65
2022/03/22 07:28:55;;;;;;;0.77;0.77;;;13.30;99.90;13.80;102973.00;;;;4996736;28;20219;-65
2022/03/22 07:31:26;;;;;;;1.53;1.40;;;13.70;99.90;14.10;102972.00;;;;5018089;28;20202;-65
2022/03/22 07:33:55;;;;;;;0.67;0.50;;;13.60;99.90;13.20;102955.00;;;;5027063;28;20236;-65
2022/03/22 07:36:26;;;;;;;0.80;0.80;;;13.20;99.90;13.50;102967.00;;;;5011625;28;20184;-65
2022/03/22 07:38:57;;;;;;;0.27;0.27;;;13.40;99.90;13.20;102975.00;;;;5044956;28;20181;-65
2022/03/22 07:41:23;;;;;;;0.83;0.83;;;13.40;99.90;13.40;102977.00;;;;4996933;28;20180;-65
2022/03/22 07:43:54;;;;;;;1.37;1.37;;;13.40;99.90;14.10;102959.00;;;;4995419;28;20187;-65
2022/03/22 07:46:26;;;;;;;2.30;1.80;;;13.70;99.90;13.30;102992.00;;;;5028453;28;20203;-65
2022/03/22 07:54:43;;;;;;;1.63;1.53;;;14.00;99.90;14.80;103021.00;;;;5023670;28;20201;-65
2022/03/22 07:57:15;;;;;;;1.43;1.43;;;14.30;99.90;14.50;103008.00;;;;4996295;28;20177;-65
2022/03/22 07:59:50;;;;;;;1.23;1.23;;;14.40;99.90;14.70;102996.00;;;;5027851;28;20176;-65
2022/03/22 08:02:21;;;;;;;1.80;1.70;;;14.50;99.90;14.70;103020.00;;;;5010549;28;20271;-66
2022/03/22 08:04:53;;;;;;;1.30;1.20;;;14.60;99.90;15.60;103026.00;;;;5044138;28;20178;-66
2022/03/22 08:07:24;;;;;;;0.30;0.30;;;14.90;99.90;15.70;103028.00;;;;4996505;28;20183;-65
2022/03/22 08:09:55;;;;;;;0.20;0.20;;;15.20;99.90;16.10;103042.00;;;;5027671;28;20179;-65
2022/03/22 08:12:26;;;;;;;1.03;0.77;;;15.50;99.90;15.50;103038.00;;;;4994208;28;20629;-66
2022/03/22 08:14:57;;;;;;;0.57;0.57;;;15.40;99.90;15.80;103041.00;;;;4996098;28;20178;-68
2022/03/22 08:17:29;;;;;;;2.47;0.87;;;15.70;99.90;16.20;103018.00;;;;5011407;28;20187;-67
2022/03/22 08:19:57;;;;;;;0.20;0.20;;;15.80;99.90;15.90;103059.00;;;;5027899;28;20660;-68
2022/03/22 08:22:25;;;;;;;0.40;0.40;;;16.00;99.90;15.60;102984.00;;;;4996056;28;20210;-68
2022/03/22 08:24:52;;;;;;;1.60;1.50;;;15.60;99.90;16.10;103070.00;;;;5044224;28;20213;-68
2022/03/22 08:27:18;;;;;;;0.83;0.83;;;15.80;99.90;17.10;103080.00;;;;5027099;28;20274;-68
2022/03/22 08:29:52;;;;;;;5.37;4.90;;;16.30;99.90;17.30;103108.00;;;;5030147;28;20233;-68
2022/03/22 08:32:28;;;;;;;1.77;1.67;;;16.60;99.90;17.00;103105.00;;;;5030637;28;20681;-68
2022/03/22 08:35:52;;;;;;;2.77;2.23;;;16.70;99.90;17.90;103126.00;;;;5009815;28;20281;-68
2022/03/22 08:38:26;;;;;;;0.63;0.63;;;17.30;99.90;18.00;103129.00;;;;5003173;28;20190;-68
2022/03/22 08:41:01;;;;;;;0.63;0.63;;;17.50;99.90;17.70;103094.00;;;;4996164;28;20196;-68
2022/03/22 08:43:37;;;;;;;0.40;0.40;;;17.40;99.90;17.80;103106.00;;;;4997397;28;20212;-68
2022/03/22 08:46:08;;;;;;;0.33;0.33;;;17.50;99.90;18.40;103087.00;;;;5030192;28;20201;-68
2022/03/22 08:48:45;;;;;;;1.77;1.20;;;17.90;99.90;19.20;103036.00;;;;5015491;28;20709;-68
2022/03/22 08:51:15;;;;;;;0.47;0.47;;;18.50;99.90;18.20;103030.00;;;;5043197;28;20278;-68
2022/03/22 08:53:46;;;;;;;0.90;0.90;;;18.50;99.90;19.00;103033.00;;;;5036001;28;20190;-68
2022/03/22 08:56:18;;;;;;;0.75;0.75;;;18.70;99.90;18.90;103035.00;;;;5046567;28;20357;-68
2022/03/22 08:58:52;;;;;;;1.85;0.50;;;18.60;99.90;18.90;103042.00;;;;5045990;28;20191;-68
2022/03/22 09:01:30;;;;;;;0.57;0.57;;;18.70;99.90;19.30;103039.00;;;;5046165;28;20184;-67
2022/03/22 09:06:51;;;;;;;0.77;0.77;;;19.30;99.90;19.80;103024.00;;;;5011616;28;20198;-65
2022/03/22 09:09:23;;;;;;;0.82;0.82;;;19.50;99.90;20.50;102915.00;;;;5007459;28;20196;-67
2022/03/22 09:11:54;;;;;;;1.20;1.05;;;19.70;99.90;20.60;103021.00;;;;5013040;28;20191;-67
2022/03/22 09:14:25;;;;;;;0.20;0.20;;;19.90;99.90;19.90;103015.00;;;;5045774;28;20222;-67
2022/03/22 09:16:56;;;;;;;0.38;0.38;;;19.70;99.90;19.20;103027.00;;;;5013203;28;20250;-67
2022/03/22 09:19:22;;;;;;;1.38;0.55;;;19.40;99.90;20.00;103022.00;;;;5013302;28;20215;-69
2022/03/22 09:21:48;;;;;;;0.40;0.40;;;19.40;99.90;20.40;103019.00;;;;5012535;28;20215;-69
2022/03/22 09:24:25;;;;;;;1.58;1.48;;;19.80;99.90;20.30;103017.00;;;;5044536;28;20642;-69
2022/03/22 09:26:56;;;;;;;0.20;0.20;;;19.90;99.90;19.60;103027.00;;;;5045114;28;20214;-70
2022/03/22 09:29:28;;;;;;;0.43;0.43;;;19.70;99.90;20.30;103022.00;;;;5046154;28;20179;-69
2022/03/22 09:31:54;;;;;;;0.45;0.45;;;19.90;99.90;20.50;103019.00;;;;5045762;28;20191;-71
2022/03/22 09:34:26;;;;;;;0.20;0.20;;;20.00;99.90;18.60;103037.00;;;;5045445;28;20246;-70
2022/03/22 09:36:52;;;;;;;0.20;0.20;;;19.20;99.90;18.70;103048.00;;;;5044543;28;20651;-71
2022/03/22 09:39:19;;;;;;;2.72;1.05;;;18.80;99.90;19.70;103001.00;;;;5045530;28;20581;-71
2022/03/22 09:41:48;;;;;;;0.85;0.85;;;19.20;99.90;20.20;103024.00;;;;5045295;28;20206;-70
2022/03/22 09:44:18;;;;;;;1.30;1.20;;;19.60;99.90;19.90;103036.00;;;;5013077;28;20186;-70
2022/03/22 09:46:50;;;;;;;0.70;0.70;;;19.60;99.90;20.90;103020.00;;;;5045830;28;20176;-69
2022/03/22 09:49:19;;;;;;;3.50;2.97;;;20.30;99.90;20.50;103028.00;;;;5044809;28;20558;-69
2022/03/22 09:51:45;;;;;;;1.35;1.35;;;20.70;99.90;20.90;103015.00;;;;5028004;28;20206;-69
2022/03/22 09:54:22;;;;;;;0.70;0.70;;;20.70;99.90;20.90;103000.00;;;;5027994;28;20218;-69
2022/03/22 09:56:56;;;;;;;0.30;0.30;;;20.70;99.70;21.50;103018.00;;;;5007996;28;20207;-68
2022/03/22 09:59:37;;;;;;;0.40;0.40;;;21.00;99.20;21.60;103008.00;;;;5036049;28;20225;-68
2022/03/22 10:02:10;;;;;;;2.08;2.00;;;21.30;98.70;21.80;103012.00;;;;5043026;28;20211;-66
2022/03/22 10:04:44;;;;;;;0.45;0.45;;;21.40;98.70;21.80;103016.00;;;;5012223;28;20197;-66
2022/03/22 10:07:20;;;;;;;2.28;2.20;;;21.30;98.80;20.30;103021.00;;;;5059801;28;20182;-67
2022/03/22 10:10:02;;;;;;;0.50;0.50;;;20.80;98.50;21.60;103018.00;;;;5044499;28;20187;-67
2022/03/22 10:12:37;;;;;;;0.65;0.65;;;21.00;98.30;21.70;102997.00;;;;5012449;28;20655;-67
2022/03/22 10:15:28;;;;;;;6.05;1.75;;;21.40;97.20;19.40;103030.00;;;;5044310;28;20202;-67
2022/03/22 10:18:10;;;;;;;0.20;0.20;;;20.40;97.60;21.20;103009.00;;;;5028219;28;20180;-67
2022/03/22 10:20:39;;;;;;;3.45;3.20;;;20.50;98.60;22.00;102993.00;;;;5045681;28;20184;-68
2022/03/22 10:33:16;;;;;;;2.75;0.80;;;22.00;95.00;21.40;103019.00;;;;5069951;28;20965;-67
2022/03/22 10:35:45;;;;;;;1.75;1.75;;;21.40;96.20;22.20;103009.00;;;;5065251;28;20186;-67
2022/03/22 10:38:18;;;;;;;4.75;3.30;;;21.60;96.20;23.10;102998.00;;;;5048301;28;20186;-66
2022/03/22 10:40:48;;;;;;;3.42;2.22;;;22.50;95.30;21.90;102983.00;;;;5065541;28;20185;-66
2022/03/22 10:43:22;;;;;;;0.60;0.60;;;21.90;95.30;21.70;103012.00;;;;5065612;28;20216;-67
2022/03/22 10:46:01;;;;;;;2.20;2.03;;;21.70;95.50;21.80;103018.00;;;;5066107;28;20188;-67
2022/03/22 10:48:36;;;;;;;0.30;0.30;;;21.90;95.80;21.80;103023.00;;;;5065516;28;20174;-67
2022/03/22 10:51:08;;;;;;;0.70;0.70;;;21.90;96.30;23.00;103019.00;;;;5065200;28;20193;-66
2022/03/22 10:53:41;;;;;;;1.75;1.05;;;22.40;95.10;22.80;102985.00;;;;5065810;28;20696;-67
2022/03/22 10:56:15;;;;;;;0.85;0.80;;;22.60;92.90;22.80;103011.00;;;;5065765;28;20257;-67
2022/03/22 10:58:47;;;;;;;1.15;1.02;;;22.60;93.30;22.40;103015.00;;;;5049016;28;20179;-67
2022/03/22 11:01:22;;;;;;;0.93;0.93;;;22.40;94.50;22.40;103022.00;;;;5065597;28;20217;-67
2022/03/22 11:03:57;;;;;;;0.10;0.10;;;22.20;95.30;22.50;103012.00;;;;5065137;28;20206;-67
2022/03/22 11:06:30;;;;;;;2.45;1.80;;;22.30;95.20;23.60;103001.00;;;;5065032;28;20627;-67
2022/03/22 11:09:04;;;;;;;4.20;3.80;;;22.90;93.70;23.60;102992.00;;;;5048691;28;20660;-67
2022/03/22 11:11:40;;;;;;;3.22;2.95;;;23.10;92.70;22.60;102976.00;;;;5064937;28;20206;-67
2022/03/22 11:14:16;;;;;;;4.90;3.42;;;22.40;92.70;22.70;102978.00;;;;5065104;28;20625;-67
2022/03/22 11:16:50;;;;;;;0.68;0.68;;;22.40;93.00;22.20;102978.00;;;;5065299;28;20205;-67
2022/03/22 11:19:22;;;;;;;0.85;0.85;;;22.30;93.30;23.00;102990.00;;;;5064883;28;20252;-67
2022/03/22 11:21:53;;;;;;;1.48;1.25;;;22.60;91.70;22.40;102974.00;;;;5065191;28;20228;-67
2022/03/22 11:24:25;;;;;;;1.23;1.23;;;22.30;92.40;23.20;102984.00;;;;5049561;28;20251;-67
2022/03/22 11:26:55;;;;;;;2.55;1.90;;;22.60;91.40;23.30;102983.00;;;;5058623;28;20191;-67
2022/03/22 11:29:26;;;;;;;3.50;3.17;;;22.90;91.10;23.00;102987.00;;;;5047052;28;20231;-67
2022/03/22 11:34:41;;;;;;;1.67;1.00;;;23.00;91.00;22.30;102988.00;;;;5048453;28;20201;-67
2022/03/22 11:37:07;;;;;;;1.77;1.67;;;22.60;90.20;22.60;102980.00;;;;5032357;28;20556;-68
2022/03/22 11:42:24;;;;;;;5.05;3.85;;;22.80;89.80;23.90;102918.00;;;;5077094;28;20228;-67
2022/03/22 11:45:00;;;;;;;2.33;2.22;;;23.20;90.10;23.40;102971.00;;;;5066658;28;20188;-66
2022/03/22 11:47:39;;;;;;;1.48;1.38;;;23.10;87.10;23.80;102975.00;;;;5051444;28;20539;-67
2022/03/22 11:50:20;;;;;;;0.82;0.68;;;23.20;87.10;23.80;102979.00;;;;5067836;28;20190;-67
2022/03/22 11:52:50;;;;;;;11.32;3.40;;;23.40;89.40;23.90;102972.00;;;;5035346;28;20202;-68
2022/03/22 11:55:18;;;;;;;2.25;2.17;;;23.40;86.70;23.80;102960.00;;;;5034406;28;20658;-68
2022/03/22 11:57:50;;;;;;;4.95;1.48;;;23.40;86.70;23.10;102948.00;;;;5051307;28;20198;-68
2022/03/22 12:00:47;;;;;;;1.48;1.42;;;23.10;87.00;23.50;102964.00;;;;5068009;28;20182;-73
2022/03/22 12:03:19;;;;;;;0.90;0.90;;;23.20;85.60;22.90;102981.00;;;;5050608;28;20218;-67
2022/03/22 12:06:12;;;;;;;1.67;1.58;;;22.80;87.10;22.10;102953.00;;;;5067033;28;20175;-67
2022/03/22 12:08:38;;;;;;;3.10;1.58;;;22.40;87.10;22.50;102972.00;;;;5048291;28;20217;-67
2022/03/22 12:11:04;;;;;;;0.20;0.20;;;22.20;86.50;23.10;102969.00;;;;5031136;28;20184;-67
2022/03/22 12:13:30;;;;;;;7.07;6.55;;;22.50;87.80;23.70;102967.00;;;;5057700;28;20179;-67